x

Ne St Martin - 330 Nm Ne St Martin Is (41044) Wave Buoy

12:50am - Sat 19th Apr 2014 All times are UTC.

  • Sig Wave height 7.9ft
  • Swell Direction
  • Peak Period 9s
  • Average Period 6s
  • Wind
    20mph, 25mph gusts
  • Sea Temp 78°f
  • Air Temp 76°f
  • Sea Pressure 1021.6mb

More Historic Weather Station data

Upgrade to MSW Pro to gain access to the past 30 days of data for over 8000 Wavebouys and Weather Stations around the globe.

Join Pro

Comparision Forecast

View Surf forecast
   
Sat 04/19 12:50am 8ft 9s 6s 20 25 mph 1021.6mb 78f 76f
Fri 04/18 11:50pm 7.5ft 8s 6s 22 27 mph 1021.3mb 78f 76f
10:50pm 8ft 8s 6s 20 25 mph 1021.1mb 78f 76f
9:50pm 9ft 9s 6s 20 25 mph 1020.6mb 78f 76f
8:50pm 9ft 8s 6s 25 27 mph 1020.1mb 78f 76f
7:50pm 8.5ft 7s 6s 22 27 mph 1019.9mb 78f 76f
6:50pm 9ft 9s 6s 20 25 mph 1020.1mb 78f 76f
5:50pm 9ft 8s 7s 22 25 mph 1020.4mb 78f 76f
4:50pm 8ft 8s 6s 20 25 mph 1021mb 78f 77f
3:50pm 7.5ft 8s 6s 20 25 mph 1021.3mb 78f 77f
2:50pm 7ft 8s 6s 20 22 mph 1021.6mb 78f 76f
1:50pm 8.5ft 8s 6s 25 31 mph 1021.5mb 78f 76f
12:50pm 7ft 8s 6s 22 27 mph 1021.1mb 78f 76f
11:50am 7.5ft 8s 6s 22 27 mph 1021mb 78f 76f
10:50am 8.5ft 8s 6s 22 29 mph 1020.4mb 78f 76f
9:50am 7ft 8s 6s 22 27 mph 1019.9mb 78f 76f
8:50am 7.5ft 8s 6s 20 25 mph 1019.6mb 78f 76f
7:50am 7ft 8s 6s 18 22 mph 1019.6mb 78f 76f
6:50am 7ft 8s 6s 22 25 mph 1019.6mb 78f 76f
5:50am 8ft 7s 6s 20 25 mph 1020.1mb 78f 76f
4:50am 7.5ft 7s 6s 22 27 mph 1020.8mb 78f 75f
3:50am 7ft 8s 6s 22 27 mph 1021.5mb 78f 76f
2:50am 7ft 9s 6s 22 25 mph 1021.9mb 78f 76f
1:50am 7.5ft 9s 6s 22 25 mph 1021.8mb 78f 77f
12:50am 7ft 8s 6s 22 27 mph 1021.4mb 78f 77f
Thu 04/17 11:50pm 7ft 8s 6s 20 25 mph 1021.2mb 78f 76f
10:50pm 8ft 8s 6s 20 22 mph 1020.7mb 78f 77f
9:50pm 8ft 8s 6s 20 22 mph 1020.1mb 78f 77f
8:50pm 8ft 8s 6s 20 22 mph 1019.7mb 78f 77f
7:50pm 7.5ft 8s 6s 20 25 mph 1019.6mb 78f 77f
6:50pm 8ft 8s 6s 22 25 mph 1019.5mb 78f 76f
5:50pm 8ft 9s 6s 20 22 mph 1020.1mb 78f 77f
4:50pm 8ft 9s 6s 20 25 mph 1020.5mb 78f 77f
3:50pm 7.5ft 7s 6s 20 25 mph 1020.6mb 78f 76f
2:50pm 8ft 8s 6s 20 25 mph 1020.9mb 78f 77f
1:50pm 7.5ft 9s 6s 22 27 mph 1020.9mb 78f 77f
12:50pm 8.5ft 9s 6s 22 25 mph 1020.6mb 78f 76f
11:50am 8ft 9s 6s 22 27 mph 1020.1mb 78f 76f
10:50am 8ft 8s 6s 22 27 mph 1019.8mb 78f 76f
9:50am 8ft 9s 6s 22 27 mph 1018.9mb 78f 76f
8:50am 9ft 9s 7s 22 27 mph 1018.5mb 78f 76f
7:50am 8.5ft 9s 6s 20 25 mph 1018.3mb 78f 76f
6:50am 7ft 8s 6s 20 25 mph 1018.4mb 78f 76f
5:50am 7.5ft 9s 6s 20 25 mph 1018.6mb 78f 76f
4:50am 7.5ft 9s 6s 16 20 mph 1019.1mb 78f 76f
3:50am 7.5ft 8s 6s 20 22 mph 1019.4mb 78f 76f
2:50am 7ft 8s 6s 18 22 mph 1019.8mb 78f 76f
1:50am 8ft 8s 6s 18 22 mph 1019.4mb 78f 76f
12:50am 8ft 9s 6s 18 22 mph 1019.5mb 78f 76f
Wed 04/16 11:50pm 8ft 8s 6s 20 25 mph 1019mb 78f 74f
10:50pm 8.5ft 8s 6s 18 22 mph 1018.5mb 78f 74f
9:50pm 8ft 9s 6s 27 34 mph 1017.9mb 78f 72f
8:50pm 8ft 9s 6s 18 22 mph 1017.7mb 78f 74f
7:50pm 8ft 9s 6s 20 22 mph 1017.4mb 78f 75f
6:50pm 6.5ft 9s 6s 18 22 mph 1017.6mb 78f 76f
5:50pm 7.5ft 8s 7s 18 22 mph 1017.9mb 78f 75f
4:50pm 7ft 9s 6s 16 20 mph 1018.5mb 78f 76f
3:50pm 7ft 9s 6s 16 20 mph 1018.5mb 78f 76f
2:50pm 7ft 9s 6s 13 18 mph 1018.8mb 78f 75f
1:50pm 7ft 10s 7s 11 13 mph 1019.1mb 78f 75f
12:50pm 7ft 9s 6s 13 18 mph 1018.9mb 78f 73f
11:50am 8ft 9s 7s 9 13 mph 1018.5mb 78f 74f
10:50am 7ft 9s 6s 18 22 mph 1017.8mb 78f 73f
9:50am 7ft 9s 6s 13 16 mph 1017.4mb 78f 76f
8:50am 7ft 9s 6s 16 20 mph 1016.9mb 78f 76f
7:50am 6.5ft 8s 6s 16 20 mph 1016.4mb 78f 74f
6:50am 6ft 8s 6s 13 18 mph 1016.3mb 78f 76f
5:50am 6ft 9s 6s 16 20 mph 1016.6mb 78f 76f
4:50am 6ft 8s 6s 9 11 mph 1017.3mb 78f 75f
3:50am 5.5ft 8s 6s 16 20 mph 1017.8mb 78f 74f
2:50am 6ft 8s 6s 13 16 mph 1018mb 78f 76f
1:50am 6ft 7s 6s 16 18 mph 1018.2mb 78f 76f
12:50am 6ft 7s 6s 18 20 mph 1018mb 78f 76f
Tue 04/15 11:50pm 5.5ft 7s 6s 16 20 mph 1017.6mb 78f 76f
10:50pm 6ft 6s 6s 13 16 mph 1017.2mb 78f 76f
9:50pm 6.5ft 6s 6s 16 20 mph 1016mb 78f 75f
8:50pm 6ft 7s 5s 22 25 mph 1015.6mb 78f 74f
7:50pm 6.5ft 7s 5s 22 27 mph 1015.1mb 78f 74f
6:50pm 7ft 7s 5s 25 29 mph 1014.9mb 78f 73f
5:50pm 6ft 7s 5s 20 25 mph 1016.1mb 78f 73f
4:50pm 6ft 7s 5s 25 27 mph 1017.1mb 78f 72f
3:50pm 6ft 7s 6s 25 29 mph 1017.4mb 78f 71f
2:50pm 5.5ft 7s 5s 16 20 mph 1019.9mb 78f 70f
1:50pm 6ft 7s 5s 22 27 mph 1018.9mb 78f 70f
12:50pm 5.5ft 6s 5s 18 22 mph 1017.7mb 78f 73f
11:50am 5ft 6s 5s 18 22 mph 1017.2mb 78f 76f
10:50am 5ft 7s 5s 16 18 mph 1016mb 78f 76f
9:50am 5ft 6s 5s 20 25 mph 1015.6mb 78f 75f
8:50am 5ft 8s 5s 20 27 mph 1014.9mb 78f 76f
7:50am 4.5ft 6s 5s 18 20 mph 1014.7mb 78f 76f
6:50am 5ft 6s 5s 18 22 mph 1014.9mb 78f 76f
5:50am 4.5ft 6s 5s 16 18 mph 1015.3mb 78f 76f
4:50am 4.5ft 6s 5s 18 20 mph 1015.8mb 78f 77f
3:50am 5ft 6s 5s 16 20 mph 1016.7mb 78f 76f
2:50am 4.5ft 8s 5s 13 18 mph 1017.4mb 78f 74f